createdAt,value
2022-11-23T00:01:23.425Z,1.20
2022-11-23T00:03:54.000Z,1.18
2022-11-23T00:06:23.070Z,1.20
2022-11-23T00:08:51.927Z,1.21
2022-11-23T00:11:21.904Z,1.19
2022-11-23T00:13:49.824Z,1.19
2022-11-23T00:16:20.478Z,1.20
2022-11-23T00:18:48.631Z,1.21
2022-11-23T00:21:17.738Z,1.19
2022-11-23T00:23:45.695Z,1.20
2022-11-23T00:26:14.193Z,1.23
2022-11-23T00:28:42.231Z,1.16
2022-11-23T00:31:13.755Z,1.17
2022-11-23T00:33:42.225Z,1.20
2022-11-23T00:36:15.239Z,1.20
2022-11-23T00:38:44.145Z,1.22
2022-11-23T00:41:18.936Z,1.23
2022-11-23T00:43:47.489Z,1.25
2022-11-23T00:46:17.842Z,1.24
2022-11-23T00:48:48.216Z,1.26
2022-11-23T00:51:19.277Z,1.24
2022-11-23T00:53:47.308Z,1.21
2022-11-23T00:56:16.316Z,1.23
2022-11-23T00:58:51.851Z,1.25
2022-11-23T01:01:22.928Z,1.23
2022-11-23T01:03:53.712Z,1.23
2022-11-23T01:06:24.366Z,1.24
2022-11-23T01:08:58.951Z,1.25
2022-11-23T01:11:29.165Z,1.20
2022-11-23T01:13:56.967Z,1.15
2022-11-23T01:16:30.915Z,1.17
2022-11-23T01:19:03.656Z,1.16
2022-11-23T01:21:33.917Z,1.14
2022-11-23T01:24:09.243Z,1.16
2022-11-23T01:26:40.952Z,1.11
2022-11-23T01:29:08.917Z,1.09
2022-11-23T01:31:45.950Z,1.12
2022-11-23T01:34:16.032Z,1.11
2022-11-23T01:36:44.470Z,1.13
2022-11-23T01:39:12.484Z,1.09
2022-11-23T01:41:43.022Z,1.12
2022-11-23T01:44:24.102Z,1.14
2022-11-23T01:46:57.137Z,1.13
2022-11-23T01:49:27.655Z,1.13
2022-11-23T01:51:59.954Z,1.16
2022-11-23T01:54:48.086Z,1.13
2022-11-23T01:57:26.470Z,1.13
2022-11-23T01:59:55.513Z,1.07
2022-11-23T02:02:23.910Z,1.07
2022-11-23T02:04:55.103Z,1.09
2022-11-23T02:07:24.278Z,1.10
2022-11-23T02:09:52.752Z,1.11
2022-11-23T02:12:20.517Z,1.10
2022-11-23T02:14:48.187Z,1.10
2022-11-23T02:17:17.273Z,1.12
2022-11-23T02:20:06.678Z,1.14
2022-11-23T02:23:06.135Z,1.20
2022-11-23T02:25:52.632Z,1.20
2022-11-23T02:28:32.821Z,1.12
2022-11-23T02:31:02.132Z,1.06
2022-11-23T02:33:30.650Z,1.07
2022-11-23T02:36:00.831Z,1.05
2022-11-23T02:38:32.924Z,1.05
2022-11-23T02:41:01.082Z,1.08
2022-11-23T02:43:28.815Z,1.07
2022-11-23T02:45:59.497Z,1.09
2022-11-23T02:48:29.402Z,1.08
2022-11-23T02:50:57.111Z,1.06
2022-11-23T02:53:25.123Z,1.05
2022-11-23T02:55:54.069Z,0.99
2022-11-23T02:58:21.720Z,1.07
2022-11-23T03:00:49.443Z,1.08
2022-11-23T03:03:18.447Z,1.11
2022-11-23T03:05:46.070Z,1.14
2022-11-23T03:08:13.902Z,1.19
2022-11-23T03:10:41.657Z,1.18
2022-11-23T03:13:09.822Z,1.18
2022-11-23T03:15:38.731Z,1.20
2022-11-23T03:18:06.687Z,1.15
2022-11-23T03:20:34.477Z,1.11
2022-11-23T03:23:02.318Z,1.14
2022-11-23T03:25:30.007Z,1.10
2022-11-23T03:27:57.901Z,1.11
2022-11-23T03:30:25.656Z,1.10
2022-11-23T03:32:54.464Z,1.13
2022-11-23T03:35:22.271Z,1.19
2022-11-23T03:38:19.154Z,1.24
2022-11-23T03:40:47.579Z,1.24
2022-11-23T03:43:35.599Z,1.27
2022-11-23T03:46:03.394Z,1.26
2022-11-23T03:48:31.189Z,1.29
2022-11-23T03:50:59.042Z,1.24
2022-11-23T03:53:26.742Z,1.24
2022-11-23T03:55:56.276Z,1.24
2022-11-23T03:58:24.980Z,1.21
2022-11-23T04:00:52.837Z,1.21
2022-11-23T04:03:20.729Z,1.16
2022-11-23T04:06:03.517Z,1.14
2022-11-23T04:08:50.312Z,1.17
2022-11-23T04:11:24.629Z,1.15
2022-11-23T04:13:52.335Z,1.14
2022-11-23T04:16:20.185Z,1.09
2022-11-23T04:18:48.030Z,1.09
2022-11-23T04:21:15.743Z,1.06
2022-11-23T04:23:44.233Z,1.12
2022-11-23T04:26:12.306Z,1.13
2022-11-23T04:28:42.195Z,1.10
2022-11-23T04:31:10.486Z,1.11
2022-11-23T04:33:49.359Z,1.08
2022-11-23T04:36:18.341Z,1.05
2022-11-23T04:38:46.061Z,1.07
2022-11-23T04:41:15.533Z,1.12
2022-11-23T04:43:43.192Z,1.12
2022-11-23T04:46:12.461Z,1.10
2022-11-23T04:48:40.185Z,1.14
2022-11-23T04:51:08.461Z,1.21
2022-11-23T04:53:38.010Z,1.14
2022-11-23T04:56:06.479Z,1.09
2022-11-23T04:58:37.330Z,1.10
2022-11-23T05:01:05.970Z,1.10
2022-11-23T05:03:35.419Z,1.09
2022-11-23T05:06:07.425Z,1.05
2022-11-23T05:08:39.933Z,1.02
2022-11-23T05:11:22.663Z,0.99
2022-11-23T05:13:50.832Z,1.04
2022-11-23T05:16:18.839Z,1.07
2022-11-23T05:18:46.528Z,1.02
2022-11-23T05:21:14.313Z,1.05
2022-11-23T05:23:42.572Z,1.03
2022-11-23T05:26:10.892Z,0.98
2022-11-23T05:28:41.444Z,1.03
2022-11-23T05:31:12.351Z,1.03
2022-11-23T05:33:40.545Z,1.04
2022-11-23T05:36:09.670Z,1.02
2022-11-23T05:38:41.752Z,1.02
2022-11-23T05:41:13.781Z,1.00
2022-11-23T05:43:43.889Z,1.00
2022-11-23T05:46:14.083Z,0.96
2022-11-23T05:48:42.037Z,0.96
2022-11-23T05:51:11.392Z,0.97
2022-11-23T05:53:44.387Z,0.99
2022-11-23T05:56:38.911Z,0.96
2022-11-23T05:59:16.341Z,0.98
2022-11-23T06:01:47.655Z,0.93
2022-11-23T06:04:21.460Z,0.92
2022-11-23T06:06:51.998Z,0.88
2022-11-23T06:09:20.857Z,0.87
2022-11-23T06:11:49.614Z,0.85
2022-11-23T06:14:20.930Z,0.82
2022-11-23T06:16:48.871Z,0.85
2022-11-23T06:19:37.191Z,0.83
2022-11-23T06:22:05.544Z,0.83
2022-11-23T06:24:36.117Z,0.81
2022-11-23T06:27:33.072Z,0.79
2022-11-23T06:30:01.128Z,0.76
2022-11-23T06:32:29.046Z,0.76
2022-11-23T06:35:00.766Z,0.78
2022-11-23T06:37:30.434Z,0.75
2022-11-23T06:39:58.100Z,0.77
2022-11-23T06:42:42.056Z,0.79
2022-11-23T06:45:17.080Z,0.81
2022-11-23T06:47:45.240Z,0.81
2022-11-23T06:50:14.520Z,0.87
2022-11-23T06:52:43.681Z,0.84
2022-11-23T06:55:11.553Z,0.87
2022-11-23T06:57:41.701Z,0.88
2022-11-23T07:00:11.390Z,0.87
2022-11-23T07:02:39.392Z,0.83
2022-11-23T07:28:25.679Z,1.20
2022-11-23T07:30:54.077Z,1.13
2022-11-23T07:33:22.161Z,1.13
2022-11-23T07:35:50.116Z,1.13
2022-11-23T07:38:17.978Z,1.10
2022-11-23T07:40:51.264Z,1.08
2022-11-23T07:43:36.763Z,1.02
2022-11-23T07:46:04.588Z,1.02
2022-11-23T07:48:36.330Z,1.00
2022-11-23T07:51:04.468Z,1.02
2022-11-23T07:53:32.115Z,0.98
2022-11-23T07:55:59.777Z,0.93
2022-11-23T07:58:27.668Z,0.95
2022-11-23T08:00:55.501Z,0.92
2022-11-23T08:03:28.172Z,0.88
2022-11-23T08:05:56.805Z,0.80
2022-11-23T08:08:24.933Z,0.79
2022-11-23T08:10:54.270Z,0.78
2022-11-23T08:13:22.526Z,0.72
2022-11-23T08:15:54.772Z,0.70
2022-11-23T08:18:24.306Z,0.66
2022-11-23T08:20:52.722Z,0.70
2022-11-23T08:23:21.102Z,0.68
2022-11-23T08:25:50.246Z,0.66
2022-11-23T08:28:18.355Z,0.73
2022-11-23T08:30:46.578Z,0.70
2022-11-23T08:33:15.182Z,0.70
2022-11-23T08:35:44.220Z,0.66
2022-11-23T08:38:13.047Z,0.67
2022-11-23T08:40:41.243Z,0.70
2022-11-23T08:43:09.068Z,0.70
2022-11-23T08:45:36.905Z,0.72
2022-11-23T08:48:05.049Z,0.72
2022-11-23T08:50:34.548Z,0.80
2022-11-23T08:53:02.576Z,0.76
2022-11-23T08:55:30.415Z,0.69
2022-11-23T08:57:59.430Z,0.68
2022-11-23T09:00:28.199Z,0.67
2022-11-23T09:02:59.949Z,0.66
2022-11-23T09:05:29.694Z,0.69
2022-11-23T09:08:01.584Z,0.74
2022-11-23T09:10:29.959Z,0.75
2022-11-23T09:12:59.184Z,0.80
2022-11-23T09:15:26.965Z,0.80
2022-11-23T09:17:54.765Z,0.83
2022-11-23T09:20:22.780Z,0.85
2022-11-23T09:22:52.498Z,0.88
2022-11-23T09:25:21.023Z,0.89
2022-11-23T09:27:49.612Z,0.90
2022-11-23T09:30:17.456Z,0.94
2022-11-23T09:32:45.228Z,0.95
2022-11-23T09:35:13.016Z,0.95
2022-11-23T09:37:40.860Z,0.97
2022-11-23T09:40:14.928Z,0.99
2022-11-23T09:43:24.106Z,1.01
2022-11-23T09:45:54.905Z,1.00
2022-11-23T09:48:52.039Z,1.06
2022-11-23T09:51:23.286Z,1.11
2022-11-23T09:54:02.956Z,1.14
2022-11-23T09:56:34.059Z,1.19
2022-11-23T09:59:10.680Z,1.18
2022-11-23T10:01:38.879Z,1.22
2022-11-23T10:04:07.393Z,1.22
2022-11-23T10:06:40.450Z,1.21
2022-11-23T10:09:17.397Z,1.13
2022-11-23T10:12:05.426Z,1.06
2022-11-23T10:14:33.659Z,1.09
2022-11-23T10:17:07.231Z,1.10
2022-11-23T10:20:13.299Z,1.10
2022-11-23T10:22:56.274Z,1.08
2022-11-23T10:25:25.727Z,1.11
2022-11-23T10:28:00.689Z,1.12
2022-11-23T10:30:28.571Z,1.09
2022-11-23T10:32:56.357Z,1.04
2022-11-23T10:35:33.247Z,1.00
2022-11-23T10:38:21.898Z,0.98
2022-11-23T10:40:57.257Z,1.03
2022-11-23T10:43:29.557Z,1.09
2022-11-23T10:46:24.409Z,1.15
2022-11-23T10:48:53.751Z,1.20
2022-11-23T10:51:24.459Z,1.16
2022-11-23T10:53:59.548Z,1.16
2022-11-23T10:56:32.753Z,1.16
2022-11-23T10:59:00.514Z,1.21
2022-11-23T11:01:30.258Z,1.26
2022-11-23T11:04:04.012Z,1.21
2022-11-23T11:06:36.058Z,1.24
2022-11-23T11:09:09.515Z,1.23
2022-11-23T11:11:46.659Z,1.23
2022-11-23T11:14:17.435Z,1.25
2022-11-23T11:16:58.452Z,1.30
2022-11-23T11:19:32.489Z,1.29
2022-11-23T11:22:21.457Z,1.23
2022-11-23T11:24:49.493Z,1.24
2022-11-23T11:27:21.729Z,1.18
2022-11-23T11:29:53.238Z,1.17
2022-11-23T11:32:34.318Z,1.09
2022-11-23T11:35:22.575Z,1.14
2022-11-23T11:37:51.832Z,1.15
2022-11-23T11:40:38.508Z,1.13
2022-11-23T11:43:27.046Z,1.17
2022-11-23T11:48:55.691Z,1.19
2022-11-23T11:51:32.224Z,1.12
2022-11-23T11:54:13.805Z,1.12
2022-11-23T11:56:45.376Z,1.12
2022-11-23T11:59:33.335Z,1.11
2022-11-23T12:02:19.542Z,1.18
2022-11-23T12:05:10.147Z,1.18
2022-11-23T12:07:53.431Z,1.19
2022-11-23T12:10:48.507Z,1.17
2022-11-23T12:13:19.602Z,1.17
2022-11-23T12:16:14.942Z,1.18
2022-11-23T12:19:06.726Z,1.22
2022-11-23T12:21:57.289Z,1.22
2022-11-23T12:25:11.529Z,1.26
2022-11-23T12:27:57.751Z,1.30
2022-11-23T12:30:40.589Z,1.31
2022-11-23T12:33:23.525Z,1.27
2022-11-23T12:36:02.040Z,1.33
2022-11-23T12:38:55.301Z,1.37
2022-11-23T12:41:24.012Z,1.31
2022-11-23T12:44:33.452Z,1.31
2022-11-23T12:47:13.272Z,1.28
2022-11-23T12:49:51.954Z,1.34
2022-11-23T12:52:35.632Z,1.36
2022-11-23T12:55:20.501Z,1.33
2022-11-23T12:58:00.297Z,1.34
2022-11-23T13:00:37.584Z,1.29
2022-11-23T13:03:18.093Z,1.21
2022-11-23T13:06:07.651Z,1.20
2022-11-23T13:08:35.381Z,1.22
2022-11-23T13:11:09.068Z,1.25
2022-11-23T13:13:55.490Z,1.25
2022-11-23T13:16:42.424Z,1.23
2022-11-23T13:19:45.702Z,1.16
2022-11-23T13:22:18.624Z,1.15
2022-11-23T13:25:07.786Z,1.15
2022-11-23T13:27:45.024Z,1.14
2022-11-23T13:30:51.947Z,1.14
2022-11-23T13:33:25.270Z,1.10
2022-11-23T13:36:02.114Z,1.05
2022-11-23T13:38:43.891Z,1.00
2022-11-23T13:41:44.151Z,0.97
2022-11-23T13:44:20.682Z,0.98
2022-11-23T13:47:11.959Z,1.00
2022-11-23T13:49:43.977Z,1.00
2022-11-23T13:52:20.985Z,1.03
2022-11-23T13:55:10.742Z,1.08
2022-11-23T13:57:40.619Z,1.06
2022-11-23T14:00:46.224Z,1.00
2022-11-23T14:03:42.162Z,0.96
2022-11-23T14:06:24.536Z,0.85
2022-11-23T14:09:12.928Z,0.83
2022-11-23T14:12:00.759Z,0.86
2022-11-23T14:14:43.681Z,0.90
2022-11-23T14:17:31.186Z,0.93
2022-11-23T14:20:10.133Z,0.97
2022-11-23T14:23:02.334Z,1.01
2022-11-23T14:25:55.967Z,1.03
2022-11-23T14:28:55.333Z,1.01
2022-11-23T14:32:01.024Z,1.01
2022-11-23T14:34:41.198Z,0.89
2022-11-23T14:37:22.955Z,0.85
2022-11-23T14:39:56.644Z,0.82
2022-11-23T14:42:28.286Z,0.77
2022-11-23T14:45:02.871Z,0.74
2022-11-23T14:47:33.717Z,0.71
2022-11-23T14:50:01.493Z,0.70
2022-11-23T14:52:33.273Z,0.65
2022-11-23T14:55:05.848Z,0.65
2022-11-23T14:57:42.340Z,0.67
2022-11-23T15:00:38.952Z,0.68
2022-11-23T15:03:34.573Z,0.61
2022-11-23T15:06:09.305Z,0.60
2022-11-23T15:09:04.825Z,0.64
2022-11-23T15:11:36.476Z,0.69
2022-11-23T15:14:25.454Z,0.76
2022-11-23T15:16:53.223Z,0.73
2022-11-23T15:19:28.978Z,0.71
2022-11-23T15:21:57.162Z,0.61
2022-11-23T15:24:26.989Z,0.55
2022-11-23T15:27:10.824Z,0.50
2022-11-23T15:29:40.168Z,0.45
2022-11-23T15:32:41.177Z,0.42
2022-11-23T15:35:14.211Z,0.39
2022-11-23T15:37:50.037Z,0.44
2022-11-23T15:40:19.495Z,0.39
2022-11-23T15:42:49.731Z,0.34
2022-11-23T15:46:01.789Z,0.35
2022-11-23T15:48:35.250Z,0.31
2022-11-23T15:51:06.320Z,0.36
2022-11-23T15:53:49.681Z,0.41
2022-11-23T15:56:29.298Z,0.39
2022-11-23T15:59:00.222Z,0.32
2022-11-23T16:01:28.427Z,0.29
2022-11-23T16:04:02.551Z,0.37
2022-11-23T16:06:36.685Z,0.42
2022-11-23T16:09:56.785Z,0.48
2022-11-23T16:12:33.842Z,0.52
2022-11-23T16:15:32.657Z,0.53
2022-11-23T16:18:02.316Z,0.55
2022-11-23T16:20:31.086Z,0.52
2022-11-23T16:23:00.671Z,0.51
2022-11-23T16:25:28.568Z,0.52
2022-11-23T16:28:06.590Z,0.48
2022-11-23T16:30:38.377Z,0.48
2022-11-23T16:33:10.903Z,0.51
2022-11-23T16:35:38.698Z,0.55
2022-11-23T16:38:06.823Z,0.60
2022-11-23T16:40:34.600Z,0.62
2022-11-23T16:43:04.086Z,0.64
2022-11-23T16:45:32.925Z,0.57
2022-11-23T16:48:02.509Z,0.54
2022-11-23T16:50:32.850Z,0.53
2022-11-23T16:53:15.843Z,0.54
2022-11-23T16:55:45.503Z,0.47
2022-11-23T16:58:15.710Z,0.45
2022-11-23T17:00:44.027Z,0.48
2022-11-23T17:03:19.106Z,0.47
2022-11-23T17:05:48.302Z,0.52
2022-11-23T17:08:23.043Z,0.52
2022-11-23T17:10:52.253Z,0.48
2022-11-23T17:13:26.662Z,0.42
2022-11-23T17:15:54.444Z,0.36
2022-11-23T17:18:22.495Z,0.36
2022-11-23T17:20:50.458Z,0.33
2022-11-23T17:23:18.342Z,0.28
2022-11-23T17:25:46.099Z,0.32
2022-11-23T17:28:17.103Z,0.33
2022-11-23T17:30:44.990Z,0.30
2022-11-23T17:33:13.084Z,0.29
2022-11-23T17:35:41.169Z,0.23
2022-11-23T17:38:15.358Z,0.21
2022-11-23T17:40:45.947Z,0.16
2022-11-23T17:43:14.269Z,0.14
2022-11-23T17:45:43.703Z,0.16
2022-11-23T17:48:12.882Z,0.17
2022-11-23T17:50:40.832Z,0.20
2022-11-23T17:53:09.885Z,0.22
2022-11-23T17:55:37.930Z,0.20
2022-11-23T17:58:05.924Z,0.19
2022-11-23T18:00:38.286Z,0.19
2022-11-23T18:03:06.134Z,0.16
2022-11-23T18:05:34.125Z,0.05
2022-11-23T18:08:01.979Z,-0.02
2022-11-23T18:10:29.783Z,0.03
2022-11-23T18:12:57.830Z,0.06
2022-11-23T18:15:25.998Z,0.09
2022-11-23T18:17:54.175Z,0.09
2022-11-23T18:20:22.403Z,0.07
2022-11-23T18:22:50.415Z,0.09
2022-11-23T18:25:18.325Z,0.05
2022-11-23T18:27:45.979Z,-0.03
2022-11-23T18:30:16.502Z,-0.01
2022-11-23T18:32:44.333Z,0.00
2022-11-23T18:35:12.003Z,-0.05
2022-11-23T18:37:39.759Z,-0.02
2022-11-23T18:40:07.912Z,0.02
2022-11-23T18:42:35.683Z,0.00
2022-11-23T18:45:03.788Z,-0.08
2022-11-23T18:47:32.256Z,-0.13
2022-11-23T18:50:06.164Z,-0.17
2022-11-23T18:52:34.660Z,-0.20
2022-11-23T18:55:02.755Z,-0.19
2022-11-23T18:57:30.475Z,-0.18
2022-11-23T18:59:58.930Z,-0.15
2022-11-23T19:02:27.113Z,-0.08
2022-11-23T19:04:54.866Z,-0.07
2022-11-23T19:07:26.818Z,-0.07
2022-11-23T19:09:56.317Z,-0.06
2022-11-23T19:12:24.079Z,-0.07
2022-11-23T19:14:51.919Z,-0.12
2022-11-23T19:17:19.900Z,-0.19
2022-11-23T19:19:47.617Z,-0.18
2022-11-23T19:22:15.286Z,-0.15
2022-11-23T19:24:43.013Z,-0.13
2022-11-23T19:27:10.649Z,-0.12
2022-11-23T19:29:39.436Z,-0.13
2022-11-23T19:32:07.525Z,-0.19
2022-11-23T19:34:35.928Z,-0.27
2022-11-23T19:37:03.601Z,-0.31
2022-11-23T19:39:32.636Z,-0.30
2022-11-23T19:42:00.541Z,-0.32
2022-11-23T19:44:28.323Z,-0.30
2022-11-23T19:46:56.180Z,-0.29
2022-11-23T19:49:25.516Z,-0.38
2022-11-23T19:51:54.137Z,-0.41
2022-11-23T19:54:22.122Z,-0.40
2022-11-23T19:56:51.071Z,-0.39
2022-11-23T19:59:19.191Z,-0.35
2022-11-23T20:01:46.974Z,-0.34
2022-11-23T20:04:15.181Z,-0.31
2022-11-23T20:06:43.611Z,-0.33
2022-11-23T20:09:23.558Z,-0.27
2022-11-23T20:11:51.936Z,-0.27
2022-11-23T20:14:19.904Z,-0.29
2022-11-23T20:16:47.908Z,-0.35
2022-11-23T20:19:15.749Z,-0.37
2022-11-23T20:21:43.883Z,-0.34
2022-11-23T20:24:13.619Z,-0.26
2022-11-23T20:26:42.297Z,-0.18
2022-11-23T20:29:13.685Z,-0.12
2022-11-23T20:31:41.749Z,-0.08
2022-11-23T20:34:14.154Z,-0.12
2022-11-23T20:36:44.598Z,-0.11
2022-11-23T20:39:12.725Z,-0.13
2022-11-23T20:41:40.437Z,-0.12
2022-11-23T20:44:13.448Z,-0.16
2022-11-23T20:49:30.218Z,-0.19
2022-11-23T20:51:58.936Z,-0.13
2022-11-23T20:54:27.089Z,-0.14
2022-11-23T20:56:54.999Z,-0.10
2022-11-23T20:59:23.841Z,-0.14
2022-11-23T21:01:52.408Z,-0.14
2022-11-23T21:04:20.221Z,-0.15
2022-11-23T21:06:47.962Z,-0.17
2022-11-23T21:09:17.054Z,-0.20
2022-11-23T21:12:03.566Z,-0.23
2022-11-23T21:14:32.835Z,-0.24
2022-11-23T21:17:01.195Z,-0.23
2022-11-23T21:19:34.782Z,-0.23
2022-11-23T21:22:14.059Z,-0.23
2022-11-23T21:24:41.855Z,-0.20
2022-11-23T21:27:12.900Z,-0.22
2022-11-23T21:29:40.596Z,-0.22
2022-11-23T21:32:08.404Z,-0.28
2022-11-23T21:34:36.464Z,-0.39
2022-11-23T21:37:04.503Z,-0.37
2022-11-23T21:39:33.007Z,-0.34
2022-11-23T21:42:01.165Z,-0.29
2022-11-23T21:44:29.223Z,-0.30
2022-11-23T21:46:56.998Z,-0.34
2022-11-23T21:49:27.748Z,-0.35
2022-11-23T21:51:55.435Z,-0.37
2022-11-23T21:54:23.114Z,-0.42
2022-11-23T21:56:50.779Z,-0.45
2022-11-23T21:59:18.693Z,-0.44
2022-11-23T22:01:46.410Z,-0.50
2022-11-23T22:04:15.751Z,-0.53
2022-11-23T22:06:45.062Z,-0.47
2022-11-23T22:09:13.729Z,-0.45
2022-11-23T22:11:43.182Z,-0.41
2022-11-23T22:14:13.449Z,-0.38
2022-11-23T22:16:46.229Z,-0.38
2022-11-23T22:19:15.698Z,-0.46
2022-11-23T22:21:45.297Z,-0.50
2022-11-23T22:24:15.478Z,-0.57
2022-11-23T22:26:43.718Z,-0.59
2022-11-23T22:29:11.781Z,-0.57
2022-11-23T22:31:40.260Z,-0.54
2022-11-23T22:34:11.694Z,-0.49
2022-11-23T22:36:39.528Z,-0.47
2022-11-23T22:39:08.041Z,-0.43
2022-11-23T22:41:37.540Z,-0.42
2022-11-23T22:44:07.637Z,-0.45
2022-11-23T22:46:35.812Z,-0.50
2022-11-23T22:49:04.670Z,-0.59
2022-11-23T22:51:33.171Z,-0.60
2022-11-23T22:54:01.701Z,-0.57
2022-11-23T22:56:30.758Z,-0.53
2022-11-23T22:58:59.200Z,-0.56
2022-11-23T23:01:29.401Z,-0.53
2022-11-23T23:03:59.699Z,-0.50
2022-11-23T23:06:30.076Z,-0.50
2022-11-23T23:08:59.068Z,-0.49
2022-11-23T23:11:28.924Z,-0.53
2022-11-23T23:13:56.669Z,-0.57
2022-11-23T23:16:25.357Z,-0.65
2022-11-23T23:18:56.803Z,-0.65
2022-11-23T23:21:25.950Z,-0.67
2022-11-23T23:23:56.231Z,-0.68
2022-11-23T23:26:26.046Z,-0.62
2022-11-23T23:28:54.766Z,-0.57
2022-11-23T23:31:23.643Z,-0.57
2022-11-23T23:33:53.607Z,-0.56
2022-11-23T23:36:23.112Z,-0.56
2022-11-23T23:38:51.171Z,-0.50
2022-11-23T23:41:19.137Z,-0.54
2022-11-23T23:43:48.292Z,-0.56
2022-11-23T23:46:16.704Z,-0.58
2022-11-23T23:48:44.631Z,-0.63
2022-11-23T23:51:18.657Z,-0.61
2022-11-23T23:53:47.271Z,-0.58
2022-11-23T23:56:20.915Z,-0.55
2022-11-23T23:58:48.807Z,-0.56
